createdAt,value
2024-02-04T00:01:28.916Z,3.00
2024-02-04T00:03:56.988Z,3.00
2024-02-04T00:06:25.015Z,2.00
2024-02-04T00:08:53.359Z,2.00
2024-02-04T00:11:21.665Z,2.00
2024-02-04T00:13:49.610Z,3.00
2024-02-04T00:16:17.965Z,2.00
2024-02-04T00:18:47.714Z,1.25
2024-02-04T00:21:15.761Z,2.00
2024-02-04T00:23:43.777Z,2.00
2024-02-04T00:26:12.101Z,1.50
2024-02-04T00:28:44.379Z,2.00
2024-02-04T00:31:12.613Z,2.00
2024-02-04T00:33:40.753Z,2.00
2024-02-04T00:36:10.794Z,2.00
2024-02-04T00:38:38.892Z,2.00
2024-02-04T00:41:06.945Z,1.25
2024-02-04T00:43:34.952Z,1.50
2024-02-04T00:46:03.090Z,2.00
2024-02-04T00:48:31.272Z,2.00
2024-02-04T00:50:59.332Z,2.00
2024-02-04T00:53:34.750Z,1.50
2024-02-04T00:56:03.224Z,2.00
2024-02-04T00:58:31.444Z,1.25
2024-02-04T01:00:59.528Z,2.00
2024-02-04T01:03:27.651Z,2.00
2024-02-04T01:05:56.855Z,2.00
2024-02-04T01:08:25.174Z,1.50
2024-02-04T01:10:54.578Z,2.00
2024-02-04T01:13:22.576Z,1.00
2024-02-04T01:15:50.587Z,1.00
2024-02-04T01:18:18.943Z,1.75
2024-02-04T01:20:46.946Z,1.00
2024-02-04T01:23:18.639Z,1.50
2024-02-04T01:25:46.611Z,2.00
2024-02-04T01:28:16.764Z,1.00
2024-02-04T01:30:44.949Z,2.00
2024-02-04T01:33:13.077Z,2.00
2024-02-04T01:35:41.194Z,1.25
2024-02-04T01:38:09.484Z,1.00
2024-02-04T01:40:37.779Z,1.00
2024-02-04T01:43:07.081Z,1.00
2024-02-04T01:45:36.624Z,1.00
2024-02-04T01:48:05.397Z,2.00
2024-02-04T01:50:33.372Z,1.00
2024-02-04T01:53:01.485Z,1.00
2024-02-04T01:55:29.445Z,1.00
2024-02-04T01:57:57.696Z,1.75
2024-02-04T02:00:25.675Z,1.00
2024-02-04T02:02:54.998Z,1.00
2024-02-04T02:05:22.954Z,1.00
2024-02-04T02:07:52.646Z,2.00
2024-02-04T02:10:21.110Z,1.00
2024-02-04T02:12:51.066Z,1.00
2024-02-04T02:15:22.637Z,1.00
2024-02-04T02:17:56.669Z,1.00
2024-02-04T02:20:28.157Z,1.00
2024-02-04T02:23:01.853Z,1.00
2024-02-04T02:25:31.280Z,1.00
2024-02-04T02:27:59.590Z,1.00
2024-02-04T02:30:27.705Z,1.00
2024-02-04T02:32:55.893Z,1.00
2024-02-04T02:35:23.944Z,1.00
2024-02-04T02:37:55.783Z,1.00
2024-02-04T02:40:24.722Z,1.00
2024-02-04T02:42:54.565Z,1.00
2024-02-04T02:45:23.807Z,1.75
2024-02-04T02:47:52.113Z,1.00
2024-02-04T02:50:20.298Z,1.00
2024-02-04T02:52:48.253Z,1.00
2024-02-04T02:55:16.451Z,1.00
2024-02-04T02:57:44.758Z,1.00
2024-02-04T03:00:15.934Z,1.00
2024-02-04T03:02:43.912Z,1.00
2024-02-04T03:05:12.905Z,1.00
2024-02-04T03:07:41.470Z,1.00
2024-02-04T03:10:10.325Z,1.00
2024-02-04T03:12:38.330Z,1.00
2024-02-04T03:15:09.068Z,2.00
2024-02-04T03:17:38.773Z,1.00
2024-02-04T03:20:07.580Z,1.00
2024-02-04T03:22:35.630Z,1.00
2024-02-04T03:25:03.807Z,1.00
2024-02-04T03:27:32.189Z,1.50
2024-02-04T03:30:00.277Z,1.00
2024-02-04T03:32:28.281Z,1.00
2024-02-04T03:34:57.753Z,1.00
2024-02-04T03:37:26.044Z,1.00
2024-02-04T03:39:54.012Z,2.00
2024-02-04T03:42:23.489Z,1.00
2024-02-04T03:44:55.815Z,1.00
2024-02-04T03:47:24.078Z,1.00
2024-02-04T03:49:52.116Z,1.00
2024-02-04T03:52:21.616Z,1.00
2024-02-04T03:54:49.607Z,1.00
2024-02-04T03:57:17.880Z,1.00
2024-02-04T03:59:47.217Z,2.00
2024-02-04T04:02:15.298Z,2.00
2024-02-04T04:04:44.374Z,1.50
2024-02-04T04:07:12.794Z,1.00
2024-02-04T04:09:42.267Z,1.00
2024-02-04T04:12:10.299Z,1.00
2024-02-04T04:14:38.287Z,1.00
2024-02-04T04:17:06.595Z,1.00
2024-02-04T04:19:36.808Z,1.00
2024-02-04T04:22:05.251Z,1.00
2024-02-04T04:24:33.327Z,1.00
2024-02-04T04:27:02.976Z,1.00
2024-02-04T04:29:30.974Z,1.00
2024-02-04T04:31:58.926Z,1.00
2024-02-04T04:34:26.874Z,1.00
2024-02-04T04:36:55.197Z,1.00
2024-02-04T04:39:23.239Z,1.00
2024-02-04T04:41:51.214Z,1.00
2024-02-04T04:44:20.569Z,1.00
2024-02-04T04:46:49.430Z,1.00
2024-02-04T04:49:17.467Z,2.00
2024-02-04T04:51:47.379Z,1.00
2024-02-04T04:54:15.362Z,1.00
2024-02-04T04:56:44.290Z,1.00
2024-02-04T04:59:12.366Z,1.00
2024-02-04T05:01:47.181Z,1.00
2024-02-04T05:04:15.363Z,1.00
2024-02-04T05:06:43.708Z,1.00
2024-02-04T05:09:11.842Z,1.00
2024-02-04T05:11:39.855Z,2.00
2024-02-04T05:14:06.810Z,1.00
2024-02-04T05:16:36.817Z,2.00
2024-02-04T05:19:06.373Z,2.00
2024-02-04T05:21:34.444Z,1.00
2024-02-04T05:24:02.453Z,1.00
2024-02-04T05:26:30.721Z,2.00
2024-02-04T05:28:58.689Z,2.00
2024-02-04T05:31:26.691Z,2.00
2024-02-04T05:33:54.831Z,1.75
2024-02-04T05:36:24.488Z,0.50
2024-02-04T05:38:52.449Z,1.00
2024-02-04T05:41:20.427Z,1.00
2024-02-04T05:43:48.396Z,2.00
2024-02-04T05:46:17.110Z,2.00
2024-02-04T05:48:46.363Z,1.00
2024-02-04T05:51:14.541Z,1.50
2024-02-04T05:53:43.942Z,1.00
2024-02-04T05:56:12.231Z,1.75
2024-02-04T05:58:40.171Z,2.00
2024-02-04T06:01:09.081Z,1.25
2024-02-04T06:03:37.180Z,2.00
2024-02-04T06:06:05.574Z,1.00
2024-02-04T06:08:33.994Z,2.00
2024-02-04T06:11:03.458Z,2.00
2024-02-04T06:13:31.410Z,2.00
2024-02-04T06:15:59.384Z,2.00
2024-02-04T06:18:27.932Z,2.00
2024-02-04T06:20:55.941Z,3.00
2024-02-04T06:23:23.894Z,2.00
2024-02-04T06:25:51.936Z,1.50
2024-02-04T06:28:21.744Z,2.00
2024-02-04T06:30:50.928Z,2.00
2024-02-04T06:33:19.035Z,2.00
2024-02-04T06:35:47.050Z,2.00
2024-02-04T06:38:15.336Z,1.00
2024-02-04T06:40:43.318Z,1.50
2024-02-04T06:43:11.367Z,1.00
2024-02-04T06:45:40.848Z,2.00
2024-02-04T06:48:10.875Z,1.00
2024-02-04T06:50:39.166Z,1.25
2024-02-04T06:53:07.609Z,3.00
2024-02-04T06:55:35.551Z,2.00
2024-02-04T06:58:04.094Z,2.50
2024-02-04T07:00:32.254Z,2.00
2024-02-04T07:03:01.803Z,1.75
2024-02-04T07:05:29.795Z,2.00
2024-02-04T07:07:58.032Z,2.00
2024-02-04T07:10:25.937Z,1.50
2024-02-04T07:12:54.006Z,1.00
2024-02-04T07:15:22.099Z,1.75
2024-02-04T07:17:50.327Z,2.00
2024-02-04T07:20:20.026Z,2.00
2024-02-04T07:22:48.102Z,2.25
2024-02-04T07:25:16.223Z,1.50
2024-02-04T07:27:44.634Z,1.75
2024-02-04T07:30:13.505Z,2.00
2024-02-04T07:32:41.476Z,1.25
2024-02-04T07:35:10.420Z,2.00
2024-02-04T07:37:40.476Z,1.00
2024-02-04T07:40:09.706Z,1.00
2024-02-04T07:42:38.018Z,2.00
2024-02-04T07:45:10.573Z,1.25
2024-02-04T07:47:38.923Z,2.00
2024-02-04T07:50:08.663Z,2.00
2024-02-04T07:52:36.756Z,1.00
2024-02-04T07:55:06.572Z,1.50
2024-02-04T07:57:34.990Z,1.00
2024-02-04T08:00:05.283Z,1.00
2024-02-04T08:02:33.499Z,1.25
2024-02-04T08:05:01.715Z,1.00
2024-02-04T08:07:30.213Z,1.00
2024-02-04T08:09:58.272Z,2.00
2024-02-04T08:12:27.667Z,1.00
2024-02-04T08:14:54.699Z,1.00
2024-02-04T08:17:22.690Z,1.00
2024-02-04T08:19:50.784Z,1.00
2024-02-04T08:22:20.277Z,1.00
2024-02-04T08:24:48.309Z,1.00
2024-02-04T08:27:18.885Z,1.00
2024-02-04T08:29:48.266Z,1.00
2024-02-04T08:32:16.270Z,2.00
2024-02-04T08:34:44.815Z,2.00
2024-02-04T08:37:13.226Z,1.00
2024-02-04T08:39:41.235Z,1.00
2024-02-04T08:42:09.219Z,1.00
2024-02-04T08:44:39.913Z,1.00
2024-02-04T08:47:11.639Z,1.00
2024-02-04T08:49:39.997Z,1.00
2024-02-04T08:52:08.379Z,1.00
2024-02-04T08:54:36.461Z,1.00
2024-02-04T08:57:05.211Z,1.00
2024-02-04T08:59:33.222Z,1.00
2024-02-04T09:02:01.165Z,1.00
2024-02-04T09:04:31.722Z,1.00
2024-02-04T09:07:00.054Z,1.00
2024-02-04T09:09:28.165Z,1.00
2024-02-04T09:11:56.227Z,1.00
2024-02-04T09:14:24.201Z,1.00
2024-02-04T09:16:52.169Z,1.00
2024-02-04T09:19:20.666Z,1.00
2024-02-04T09:21:50.244Z,1.00
2024-02-04T09:24:18.190Z,1.00
2024-02-04T09:26:46.454Z,1.00
2024-02-04T09:29:14.552Z,1.00
2024-02-04T09:31:42.763Z,2.00
2024-02-04T09:34:11.015Z,1.00
2024-02-04T09:36:39.719Z,1.00
2024-02-04T09:39:09.245Z,1.00
2024-02-04T09:41:37.254Z,1.00
2024-02-04T09:44:05.343Z,1.00
2024-02-04T09:46:33.775Z,1.00
2024-02-04T09:49:04.202Z,1.00
2024-02-04T09:51:32.308Z,1.00
2024-02-04T09:54:01.336Z,1.00
2024-02-04T09:56:30.968Z,1.00
2024-02-04T09:58:58.947Z,1.00
2024-02-04T10:01:27.026Z,1.00
2024-02-04T10:03:55.102Z,0.50
2024-02-04T10:06:23.644Z,1.00
2024-02-04T10:08:51.862Z,1.00
2024-02-04T10:11:19.995Z,1.00
2024-02-04T10:13:49.792Z,1.00
2024-02-04T10:16:18.562Z,1.00
2024-02-04T10:18:46.632Z,1.00
2024-02-04T10:21:19.183Z,1.00
2024-02-04T10:23:47.194Z,1.00
2024-02-04T10:26:15.453Z,1.00
2024-02-04T10:28:43.374Z,1.00
2024-02-04T10:31:12.882Z,1.25
2024-02-04T10:33:41.059Z,1.00
2024-02-04T10:36:09.744Z,1.00
2024-02-04T10:38:38.003Z,0.50
2024-02-04T10:41:06.111Z,1.25
2024-02-04T10:43:35.007Z,1.00
2024-02-04T10:46:04.587Z,1.00
2024-02-04T10:48:39.421Z,0.75
2024-02-04T10:51:07.568Z,1.00
2024-02-04T10:53:35.487Z,1.00
2024-02-04T10:56:03.946Z,1.00
2024-02-04T10:58:31.946Z,1.00
2024-02-04T11:00:59.913Z,1.00
2024-02-04T11:05:58.225Z,1.00
2024-02-04T11:08:26.296Z,1.00
2024-02-04T11:10:54.904Z,1.00
2024-02-04T11:13:22.996Z,1.00
2024-02-04T11:15:50.962Z,1.00
2024-02-04T11:18:36.735Z,1.50
2024-02-04T11:21:20.505Z,1.00
2024-02-04T11:23:52.995Z,1.00
2024-02-04T11:26:21.244Z,1.00
2024-02-04T11:28:49.351Z,1.75
2024-02-04T11:31:18.128Z,1.00
2024-02-04T11:33:47.286Z,1.00
2024-02-04T11:36:19.945Z,2.00
2024-02-04T11:38:50.522Z,1.00
2024-02-04T11:41:24.262Z,2.00
2024-02-04T11:43:56.499Z,1.00
2024-02-04T11:46:30.171Z,1.00
2024-02-04T11:48:58.875Z,1.50
2024-02-04T11:51:28.629Z,0.75
2024-02-04T11:53:57.265Z,1.00
2024-02-04T11:56:26.358Z,1.00
2024-02-04T11:58:54.365Z,1.00
2024-02-04T12:01:24.464Z,1.00
2024-02-04T12:03:53.813Z,1.50
2024-02-04T12:06:22.723Z,1.00
2024-02-04T12:08:52.103Z,1.00
2024-02-04T12:11:20.019Z,1.00
2024-02-04T12:13:47.968Z,1.00
2024-02-04T12:16:16.633Z,1.00
2024-02-04T12:18:50.862Z,1.00
2024-02-04T12:21:19.067Z,1.00
2024-02-04T12:23:47.063Z,1.00
2024-02-04T12:26:16.766Z,1.25
2024-02-04T12:28:44.773Z,1.50
2024-02-04T12:31:19.974Z,2.00
2024-02-04T12:33:55.768Z,1.00
2024-02-04T12:36:23.863Z,1.00
2024-02-04T12:38:58.067Z,1.00
2024-02-04T12:41:27.505Z,1.00
2024-02-04T12:43:57.171Z,1.00
2024-02-04T12:46:25.596Z,1.75
2024-02-04T12:48:54.269Z,2.00
2024-02-04T12:51:28.454Z,1.00
2024-02-04T12:54:06.941Z,1.00
2024-02-04T12:59:31.154Z,0.00
2024-02-04T13:01:59.803Z,0.50
2024-02-04T13:04:27.976Z,0.75
2024-02-04T13:06:56.382Z,1.00
2024-02-04T13:09:24.580Z,1.00
2024-02-04T13:11:52.766Z,1.00
2024-02-04T13:14:20.764Z,1.00
2024-02-04T13:16:50.439Z,1.00
2024-02-04T13:19:18.520Z,1.00
2024-02-04T13:21:46.627Z,1.00
2024-02-04T13:24:14.627Z,1.00
2024-02-04T13:26:42.889Z,1.00
2024-02-04T13:29:10.898Z,1.00
2024-02-04T13:31:39.019Z,1.00
2024-02-04T13:34:08.526Z,1.00
2024-02-04T13:36:36.871Z,1.00
2024-02-04T13:39:06.771Z,1.00
2024-02-04T13:41:34.726Z,1.00
2024-02-04T13:44:02.748Z,1.00
2024-02-04T13:46:31.018Z,1.00
2024-02-04T13:48:59.014Z,1.00
2024-02-04T13:51:36.816Z,1.00
2024-02-04T13:54:12.273Z,1.00
2024-02-04T13:56:40.533Z,1.50
2024-02-04T13:59:08.584Z,1.00
2024-02-04T14:01:36.678Z,1.50
2024-02-04T14:04:04.933Z,1.00
2024-02-04T14:06:34.799Z,1.00
2024-02-04T14:09:02.896Z,1.00
2024-02-04T14:11:30.898Z,1.00
2024-02-04T14:13:58.864Z,1.00
2024-02-04T14:16:27.226Z,2.00
2024-02-04T14:18:58.618Z,1.00
2024-02-04T14:21:28.851Z,1.00
2024-02-04T14:23:58.314Z,1.00
2024-02-04T14:26:26.549Z,2.00
2024-02-04T14:28:54.554Z,1.00
2024-02-04T14:31:22.828Z,1.00
2024-02-04T14:33:51.724Z,0.50
2024-02-04T14:36:20.616Z,1.00
2024-02-04T14:38:48.710Z,1.25
2024-02-04T14:41:18.069Z,1.00
2024-02-04T14:43:46.020Z,1.00
2024-02-04T14:46:14.381Z,1.00
2024-02-04T14:48:43.551Z,2.00
2024-02-04T14:51:12.100Z,1.00
2024-02-04T14:53:40.366Z,1.00
2024-02-04T14:56:09.681Z,1.00
2024-02-04T14:58:39.404Z,1.50
2024-02-04T15:01:07.663Z,1.75
2024-02-04T15:03:36.229Z,1.00
2024-02-04T15:06:05.679Z,1.00
2024-02-04T15:08:33.716Z,1.25
2024-02-04T15:11:01.676Z,1.00
2024-02-04T15:13:33.906Z,1.00
2024-02-04T15:16:05.250Z,1.00
2024-02-04T15:18:34.208Z,1.00
2024-02-04T15:21:03.239Z,1.00
2024-02-04T15:23:31.708Z,1.00
2024-02-04T15:26:00.790Z,2.00
2024-02-04T15:28:29.420Z,2.00
2024-02-04T15:30:58.212Z,2.00
2024-02-04T15:33:30.150Z,1.25
2024-02-04T15:35:58.626Z,2.00
2024-02-04T15:38:26.591Z,2.00
2024-02-04T15:40:54.592Z,1.00
2024-02-04T15:43:23.141Z,2.00
2024-02-04T15:45:52.019Z,2.00
2024-02-04T15:48:20.751Z,1.00
2024-02-04T15:50:50.855Z,1.00
2024-02-04T15:53:19.560Z,2.25
2024-02-04T15:55:48.258Z,2.00
2024-02-04T15:58:16.283Z,1.00
2024-02-04T16:00:45.238Z,2.00
2024-02-04T16:03:13.857Z,1.00
2024-02-04T16:05:43.396Z,1.00
2024-02-04T16:08:15.272Z,1.25
2024-02-04T16:10:43.744Z,2.00
2024-02-04T16:13:12.229Z,1.00
2024-02-04T16:15:40.907Z,2.00
2024-02-04T16:18:10.030Z,1.00
2024-02-04T16:20:40.480Z,1.00
2024-02-04T16:23:08.398Z,2.00
2024-02-04T16:25:38.070Z,2.00
2024-02-04T16:28:06.724Z,2.00
2024-02-04T16:30:35.372Z,2.00
2024-02-04T16:33:03.651Z,2.00
2024-02-04T16:35:31.690Z,2.00
2024-02-04T16:38:00.707Z,2.00
2024-02-04T16:40:28.647Z,2.00
2024-02-04T16:42:58.058Z,2.50
2024-02-04T16:45:26.501Z,2.00
2024-02-04T16:47:54.517Z,2.00
2024-02-04T16:50:23.120Z,2.00
2024-02-04T16:52:51.269Z,1.75
2024-02-04T16:55:19.759Z,1.00
2024-02-04T16:57:47.808Z,2.75
2024-02-04T17:00:18.506Z,2.00
2024-02-04T17:02:47.013Z,1.00
2024-02-04T17:05:16.316Z,2.00
2024-02-04T17:07:44.940Z,3.00
2024-02-04T17:10:14.574Z,2.00
2024-02-04T17:12:43.535Z,1.50
2024-02-04T17:15:13.250Z,1.25
2024-02-04T17:17:44.096Z,1.75
2024-02-04T17:20:15.853Z,2.00
2024-02-04T17:22:44.621Z,2.25
2024-02-04T17:25:17.955Z,1.50
2024-02-04T17:27:47.051Z,2.00
2024-02-04T17:30:15.991Z,2.00
2024-02-04T17:32:48.974Z,2.00
2024-02-04T17:35:20.455Z,2.00
2024-02-04T17:37:49.648Z,2.00
2024-02-04T17:40:18.522Z,2.00
2024-02-04T17:42:46.879Z,2.00
2024-02-04T17:45:15.423Z,2.00
2024-02-04T17:47:44.364Z,2.00
2024-02-04T17:50:13.877Z,3.00
2024-02-04T17:52:42.439Z,2.00
2024-02-04T17:55:11.319Z,2.00
2024-02-04T17:57:39.376Z,2.00
2024-02-04T18:00:11.438Z,2.00
2024-02-04T18:02:46.534Z,1.00
2024-02-04T18:05:18.931Z,2.00
2024-02-04T18:07:49.050Z,2.00
2024-02-04T18:10:17.315Z,1.00
2024-02-04T18:12:45.391Z,1.25
2024-02-04T18:15:14.446Z,1.75
2024-02-04T18:17:43.654Z,2.00
2024-02-04T18:20:13.507Z,2.00
2024-02-04T18:22:43.019Z,2.00
2024-02-04T18:25:13.366Z,2.00
2024-02-04T18:27:43.163Z,2.00
2024-02-04T18:30:12.220Z,1.50
2024-02-04T18:32:40.643Z,2.00
2024-02-04T18:35:09.784Z,2.00
2024-02-04T18:37:37.918Z,2.00
2024-02-04T18:40:10.381Z,1.50
2024-02-04T18:42:38.433Z,2.00
2024-02-04T18:45:09.081Z,2.00
2024-02-04T18:47:37.088Z,2.00
2024-02-04T18:50:05.352Z,2.00
2024-02-04T18:52:34.724Z,2.00
2024-02-04T18:55:04.238Z,2.75
2024-02-04T18:57:34.787Z,2.00
2024-02-04T19:00:02.998Z,2.00
2024-02-04T19:02:30.988Z,2.00
2024-02-04T19:04:59.577Z,2.00
2024-02-04T19:07:27.753Z,2.00
2024-02-04T19:09:55.907Z,2.00
2024-02-04T19:12:24.089Z,2.00
2024-02-04T19:14:53.817Z,2.00
2024-02-04T19:17:22.823Z,2.00
2024-02-04T19:19:50.851Z,2.00
2024-02-04T19:22:19.001Z,2.00
2024-02-04T19:24:47.990Z,2.00
2024-02-04T19:27:16.017Z,2.00
2024-02-04T19:29:44.029Z,2.50
2024-02-04T19:32:13.435Z,2.75
2024-02-04T19:34:41.803Z,5.00
2024-02-04T19:37:09.427Z,6.00
2024-02-04T19:39:37.663Z,4.00
2024-02-04T19:42:05.912Z,4.00
2024-02-04T19:44:34.211Z,5.00
2024-02-04T19:47:02.209Z,4.00
2024-02-04T19:49:31.622Z,6.00
2024-02-04T19:52:01.845Z,4.75
2024-02-04T19:54:29.916Z,4.00
2024-02-04T19:56:57.922Z,5.25
2024-02-04T19:59:25.906Z,5.00
2024-02-04T20:01:53.975Z,6.00
2024-02-04T20:04:22.168Z,5.00
2024-02-04T20:06:52.002Z,5.00
2024-02-04T20:09:20.017Z,5.75
2024-02-04T20:11:47.972Z,6.00
2024-02-04T20:14:16.009Z,5.50
2024-02-04T20:16:44.233Z,6.75
2024-02-04T20:19:12.278Z,6.00
2024-02-04T20:21:40.349Z,7.00
2024-02-04T20:24:10.003Z,7.75
2024-02-04T20:26:38.237Z,8.00
2024-02-04T20:29:06.188Z,7.25
2024-02-04T20:31:34.657Z,7.50
2024-02-04T20:34:04.968Z,7.75
2024-02-04T20:36:34.123Z,9.00
2024-02-04T20:39:02.169Z,8.50
2024-02-04T20:41:31.707Z,8.00
2024-02-04T20:43:59.726Z,7.75
2024-02-04T20:46:28.531Z,7.75
2024-02-04T20:48:56.707Z,8.00
2024-02-04T20:51:26.340Z,7.00
2024-02-04T20:53:54.373Z,7.50
2024-02-04T20:56:22.602Z,8.50
2024-02-04T20:58:52.058Z,7.00
2024-02-04T21:01:22.089Z,8.00
2024-02-04T21:03:50.243Z,8.00
2024-02-04T21:06:18.720Z,7.00
2024-02-04T21:08:46.738Z,7.00
2024-02-04T21:11:21.890Z,8.00
2024-02-04T21:13:51.259Z,7.00
2024-02-04T21:16:19.585Z,7.50
2024-02-04T21:18:48.220Z,7.75
2024-02-04T21:21:16.352Z,6.00
2024-02-04T21:23:44.319Z,6.75
2024-02-04T21:26:12.754Z,8.00
2024-02-04T21:28:41.378Z,8.00
2024-02-04T21:31:10.798Z,8.00
2024-02-04T21:33:39.047Z,8.25
2024-02-04T21:36:10.978Z,9.00
2024-02-04T21:38:39.922Z,8.50
2024-02-04T21:41:07.884Z,8.00
2024-02-04T21:43:35.837Z,8.75
2024-02-04T21:46:04.315Z,8.25
2024-02-04T21:48:34.380Z,8.00
2024-02-04T21:51:04.754Z,8.25
2024-02-04T21:53:32.805Z,10.00
2024-02-04T21:56:01.068Z,8.00
2024-02-04T21:58:29.192Z,8.50
2024-02-04T22:00:57.847Z,8.00
2024-02-04T22:03:25.902Z,8.50
2024-02-04T22:05:55.453Z,8.50
2024-02-04T22:08:23.381Z,8.00
2024-02-04T22:10:51.465Z,9.00
2024-02-04T22:13:20.822Z,8.25
2024-02-04T22:15:49.258Z,6.00
2024-02-04T22:18:16.287Z,8.00
2024-02-04T22:20:44.326Z,7.00
2024-02-04T22:23:14.877Z,6.00
2024-02-04T22:25:43.123Z,7.00
2024-02-04T22:28:12.068Z,5.50
2024-02-04T22:30:40.172Z,6.00
2024-02-04T22:33:08.719Z,8.00
2024-02-04T22:35:37.073Z,6.00
2024-02-04T22:38:05.241Z,6.00
2024-02-04T22:40:35.124Z,5.25
2024-02-04T22:43:03.322Z,7.25
2024-02-04T22:45:34.046Z,5.75
2024-02-04T22:48:03.246Z,5.00
2024-02-04T22:50:32.135Z,7.00
2024-02-04T22:53:00.532Z,6.00
2024-02-04T22:55:28.871Z,6.00
2024-02-04T22:57:58.254Z,5.00
2024-02-04T23:00:29.956Z,5.00
2024-02-04T23:02:58.698Z,4.75
2024-02-04T23:05:27.467Z,5.50
2024-02-04T23:07:59.262Z,4.25
2024-02-04T23:10:28.487Z,5.00
2024-02-04T23:12:57.369Z,4.25
2024-02-04T23:15:27.233Z,6.00
2024-02-04T23:17:55.227Z,4.50
2024-02-04T23:20:23.430Z,5.25
2024-02-04T23:22:51.936Z,5.25
2024-02-04T23:25:24.421Z,4.00
2024-02-04T23:27:55.033Z,4.00
2024-02-04T23:30:23.339Z,4.00
2024-02-04T23:32:53.223Z,4.25
2024-02-04T23:35:21.552Z,5.00
2024-02-04T23:37:49.633Z,4.75
2024-02-04T23:40:18.858Z,3.25
2024-02-04T23:42:47.003Z,4.00
2024-02-04T23:45:15.318Z,3.25
2024-02-04T23:47:43.616Z,4.00
2024-02-04T23:50:13.545Z,4.00
2024-02-04T23:52:41.517Z,4.00
2024-02-04T23:55:11.022Z,3.00
2024-02-04T23:57:39.297Z,4.00
